sensor_id;sensor_type;location;lat;lon;timestamp;temperature;humidity
2973;DHT22;1496;51.404;7.232;2023-09-18T00:00:03;21.80;1.00
2973;DHT22;1496;51.404;7.232;2023-09-18T00:02:37;21.80;1.00
2973;DHT22;1496;51.404;7.232;2023-09-18T00:05:03;21.80;1.00
2973;DHT22;1496;51.404;7.232;2023-09-18T00:07:29;21.80;1.00
2973;DHT22;1496;51.404;7.232;2023-09-18T00:09:55;21.70;1.00
2973;DHT22;1496;51.404;7.232;2023-09-18T00:12:20;21.70;1.00
2973;DHT22;1496;51.404;7.232;2023-09-18T00:14:50;21.70;1.00
2973;DHT22;1496;51.404;7.232;2023-09-18T00:17:16;21.70;1.00
2973;DHT22;1496;51.404;7.232;2023-09-18T00:19:43;21.70;1.00
2973;DHT22;1496;51.404;7.232;2023-09-18T00:22:08;21.70;1.00
2973;DHT22;1496;51.404;7.232;2023-09-18T00:24:34;21.70;1.00
2973;DHT22;1496;51.404;7.232;2023-09-18T00:27:00;21.70;1.00
2973;DHT22;1496;51.404;7.232;2023-09-18T00:29:25;21.70;1.00
2973;DHT22;1496;51.404;7.232;2023-09-18T00:31:51;21.60;1.00
2973;DHT22;1496;51.404;7.232;2023-09-18T00:34:16;21.60;1.00
2973;DHT22;1496;51.404;7.232;2023-09-18T00:36:42;21.60;1.00
2973;DHT22;1496;51.404;7.232;2023-09-18T00:39:08;21.60;1.00
2973;DHT22;1496;51.404;7.232;2023-09-18T00:41:33;21.50;1.00
2973;DHT22;1496;51.404;7.232;2023-09-18T00:43:59;21.50;1.00
2973;DHT22;1496;51.404;7.232;2023-09-18T00:46:25;21.60;1.00
2973;DHT22;1496;51.404;7.232;2023-09-18T00:48:53;21.50;1.00
2973;DHT22;1496;51.404;7.232;2023-09-18T00:51:19;21.50;1.00
2973;DHT22;1496;51.404;7.232;2023-09-18T00:53:47;21.40;1.00
2973;DHT22;1496;51.404;7.232;2023-09-18T00:56:16;21.40;1.00
2973;DHT22;1496;51.404;7.232;2023-09-18T00:58:43;21.30;1.00
2973;DHT22;1496;51.404;7.232;2023-09-18T01:01:11;21.40;1.00
2973;DHT22;1496;51.404;7.232;2023-09-18T01:03:37;21.30;1.00
2973;DHT22;1496;51.404;7.232;2023-09-18T01:06:03;21.20;1.00
2973;DHT22;1496;51.404;7.232;2023-09-18T01:08:29;21.30;1.00
2973;DHT22;1496;51.404;7.232;2023-09-18T01:11:02;21.30;1.00
2973;DHT22;1496;51.404;7.232;2023-09-18T01:14:04;21.30;1.00
2973;DHT22;1496;51.404;7.232;2023-09-18T01:16:59;21.30;1.00
2973;DHT22;1496;51.404;7.232;2023-09-18T01:19:38;21.30;1.00
2973;DHT22;1496;51.404;7.232;2023-09-18T01:22:05;21.40;1.00
2973;DHT22;1496;51.404;7.232;2023-09-18T01:24:33;21.40;1.00
2973;DHT22;1496;51.404;7.232;2023-09-18T01:27:00;21.40;1.00
2973;DHT22;1496;51.404;7.232;2023-09-18T01:29:26;21.40;1.00
2973;DHT22;1496;51.404;7.232;2023-09-18T01:31:53;21.40;1.00
2973;DHT22;1496;51.404;7.232;2023-09-18T01:34:22;21.50;1.00
2973;DHT22;1496;51.404;7.232;2023-09-18T01:36:49;21.50;1.00
2973;DHT22;1496;51.404;7.232;2023-09-18T01:39:17;21.60;1.00
2973;DHT22;1496;51.404;7.232;2023-09-18T01:41:43;21.70;1.00
2973;DHT22;1496;51.404;7.232;2023-09-18T01:44:09;21.70;1.00
2973;DHT22;1496;51.404;7.232;2023-09-18T01:46:35;21.80;1.00
2973;DHT22;1496;51.404;7.232;2023-09-18T01:49:03;21.80;1.00
2973;DHT22;1496;51.404;7.232;2023-09-18T01:51:29;21.70;1.00
2973;DHT22;1496;51.404;7.232;2023-09-18T01:53:56;21.80;1.00
2973;DHT22;1496;51.404;7.232;2023-09-18T01:56:22;21.80;1.00
2973;DHT22;1496;51.404;7.232;2023-09-18T01:58:49;21.80;1.00
2973;DHT22;1496;51.404;7.232;2023-09-18T02:01:14;21.80;1.00
2973;DHT22;1496;51.404;7.232;2023-09-18T02:03:40;21.80;1.00
2973;DHT22;1496;51.404;7.232;2023-09-18T02:06:07;21.90;1.00
2973;DHT22;1496;51.404;7.232;2023-09-18T02:08:34;21.80;1.00
2973;DHT22;1496;51.404;7.232;2023-09-18T02:11:00;21.80;1.00
2973;DHT22;1496;51.404;7.232;2023-09-18T02:13:26;21.80;1.00
2973;DHT22;1496;51.404;7.232;2023-09-18T02:15:52;21.80;1.00
2973;DHT22;1496;51.404;7.232;2023-09-18T02:18:18;21.80;1.00
2973;DHT22;1496;51.404;7.232;2023-09-18T02:20:45;21.80;1.00
2973;DHT22;1496;51.404;7.232;2023-09-18T02:23:14;21.80;1.00
2973;DHT22;1496;51.404;7.232;2023-09-18T02:25:41;21.80;1.00
2973;DHT22;1496;51.404;7.232;2023-09-18T02:28:07;21.90;1.00
2973;DHT22;1496;51.404;7.232;2023-09-18T02:30:33;21.90;1.00
2973;DHT22;1496;51.404;7.232;2023-09-18T02:32:59;21.90;1.00
2973;DHT22;1496;51.404;7.232;2023-09-18T02:35:25;21.90;1.00
2973;DHT22;1496;51.404;7.232;2023-09-18T02:37:51;21.90;1.00
2973;DHT22;1496;51.404;7.232;2023-09-18T02:40:17;21.90;1.00
2973;DHT22;1496;51.404;7.232;2023-09-18T02:42:43;22.00;1.00
2973;DHT22;1496;51.404;7.232;2023-09-18T02:45:09;21.90;1.00
2973;DHT22;1496;51.404;7.232;2023-09-18T02:47:35;21.90;1.00
2973;DHT22;1496;51.404;7.232;2023-09-18T02:50:04;21.90;1.00
2973;DHT22;1496;51.404;7.232;2023-09-18T02:52:31;21.90;1.00
2973;DHT22;1496;51.404;7.232;2023-09-18T02:54:56;22.00;1.00
2973;DHT22;1496;51.404;7.232;2023-09-18T02:57:22;22.00;1.00
2973;DHT22;1496;51.404;7.232;2023-09-18T02:59:48;22.00;1.00
2973;DHT22;1496;51.404;7.232;2023-09-18T03:02:14;22.00;1.00
2973;DHT22;1496;51.404;7.232;2023-09-18T03:04:40;22.00;1.00
2973;DHT22;1496;51.404;7.232;2023-09-18T03:07:06;21.90;1.00
2973;DHT22;1496;51.404;7.232;2023-09-18T03:09:32;22.00;1.00
2973;DHT22;1496;51.404;7.232;2023-09-18T03:11:57;22.00;1.00
2973;DHT22;1496;51.404;7.232;2023-09-18T03:14:24;22.00;1.00
2973;DHT22;1496;51.404;7.232;2023-09-18T03:16:50;21.90;1.00
2973;DHT22;1496;51.404;7.232;2023-09-18T03:19:16;22.00;1.00
2973;DHT22;1496;51.404;7.232;2023-09-18T03:21:42;22.00;1.00
2973;DHT22;1496;51.404;7.232;2023-09-18T03:24:07;22.00;1.00
2973;DHT22;1496;51.404;7.232;2023-09-18T03:26:33;22.10;1.00
2973;DHT22;1496;51.404;7.232;2023-09-18T03:28:59;22.00;1.00
2973;DHT22;1496;51.404;7.232;2023-09-18T03:31:24;21.80;1.00
2973;DHT22;1496;51.404;7.232;2023-09-18T03:33:51;21.80;1.00
2973;DHT22;1496;51.404;7.232;2023-09-18T03:36:17;21.70;1.00
2973;DHT22;1496;51.404;7.232;2023-09-18T03:38:43;21.70;1.00
2973;DHT22;1496;51.404;7.232;2023-09-18T03:41:08;21.60;1.00
2973;DHT22;1496;51.404;7.232;2023-09-18T03:43:34;21.70;1.00
2973;DHT22;1496;51.404;7.232;2023-09-18T03:46:07;21.60;1.00
2973;DHT22;1496;51.404;7.232;2023-09-18T03:48:39;21.60;1.00
2973;DHT22;1496;51.404;7.232;2023-09-18T03:51:05;21.60;1.00
2973;DHT22;1496;51.404;7.232;2023-09-18T03:53:32;21.60;1.00
2973;DHT22;1496;51.404;7.232;2023-09-18T03:55:59;21.50;1.00
2973;DHT22;1496;51.404;7.232;2023-09-18T03:58:24;21.40;1.00
2973;DHT22;1496;51.404;7.232;2023-09-18T04:00:50;21.40;1.00
2973;DHT22;1496;51.404;7.232;2023-09-18T04:03:17;21.30;1.00
2973;DHT22;1496;51.404;7.232;2023-09-18T04:05:42;21.20;1.00
2973;DHT22;1496;51.404;7.232;2023-09-18T04:08:08;21.20;1.00
2973;DHT22;1496;51.404;7.232;2023-09-18T04:10:34;21.20;1.00
2973;DHT22;1496;51.404;7.232;2023-09-18T04:13:00;21.20;1.00
2973;DHT22;1496;51.404;7.232;2023-09-18T04:15:25;21.20;1.00
2973;DHT22;1496;51.404;7.232;2023-09-18T04:17:53;21.10;1.00
2973;DHT22;1496;51.404;7.232;2023-09-18T04:20:18;21.10;1.00
2973;DHT22;1496;51.404;7.232;2023-09-18T04:22:46;21.00;1.00
2973;DHT22;1496;51.404;7.232;2023-09-18T04:25:16;21.00;1.00
2973;DHT22;1496;51.404;7.232;2023-09-18T04:27:42;21.00;1.00
2973;DHT22;1496;51.404;7.232;2023-09-18T04:30:08;21.00;1.00
2973;DHT22;1496;51.404;7.232;2023-09-18T04:32:37;21.00;1.00
2973;DHT22;1496;51.404;7.232;2023-09-18T04:35:04;20.90;1.00
2973;DHT22;1496;51.404;7.232;2023-09-18T04:37:31;20.80;1.00
2973;DHT22;1496;51.404;7.232;2023-09-18T04:40:00;20.80;1.00
2973;DHT22;1496;51.404;7.232;2023-09-18T04:42:26;20.80;1.00
2973;DHT22;1496;51.404;7.232;2023-09-18T04:44:52;20.80;1.00
2973;DHT22;1496;51.404;7.232;2023-09-18T04:47:18;20.80;1.00
2973;DHT22;1496;51.404;7.232;2023-09-18T04:49:44;20.80;1.00
2973;DHT22;1496;51.404;7.232;2023-09-18T04:52:13;20.80;1.00
2973;DHT22;1496;51.404;7.232;2023-09-18T04:54:39;20.80;1.00
2973;DHT22;1496;51.404;7.232;2023-09-18T04:57:05;20.80;1.00
2973;DHT22;1496;51.404;7.232;2023-09-18T04:59:31;20.70;1.00
2973;DHT22;1496;51.404;7.232;2023-09-18T05:01:57;20.60;1.00
2973;DHT22;1496;51.404;7.232;2023-09-18T05:04:23;20.60;1.00
2973;DHT22;1496;51.404;7.232;2023-09-18T05:06:49;20.50;1.00
2973;DHT22;1496;51.404;7.232;2023-09-18T05:09:14;20.40;1.00
2973;DHT22;1496;51.404;7.232;2023-09-18T05:11:40;20.40;1.00
2973;DHT22;1496;51.404;7.232;2023-09-18T05:14:07;20.40;1.00
2973;DHT22;1496;51.404;7.232;2023-09-18T05:16:33;20.40;1.00
2973;DHT22;1496;51.404;7.232;2023-09-18T05:18:59;20.40;1.00
2973;DHT22;1496;51.404;7.232;2023-09-18T05:21:25;20.40;1.00
2973;DHT22;1496;51.404;7.232;2023-09-18T05:23:52;20.30;1.00
2973;DHT22;1496;51.404;7.232;2023-09-18T05:26:19;20.20;1.00
2973;DHT22;1496;51.404;7.232;2023-09-18T05:28:44;20.20;1.00
2973;DHT22;1496;51.404;7.232;2023-09-18T05:31:11;20.20;1.00
2973;DHT22;1496;51.404;7.232;2023-09-18T05:33:37;20.10;1.00
2973;DHT22;1496;51.404;7.232;2023-09-18T05:36:05;20.20;1.00
2973;DHT22;1496;51.404;7.232;2023-09-18T05:38:33;20.20;1.00
2973;DHT22;1496;51.404;7.232;2023-09-18T05:40:59;20.10;1.00
2973;DHT22;1496;51.404;7.232;2023-09-18T05:43:25;20.00;1.00
2973;DHT22;1496;51.404;7.232;2023-09-18T05:45:51;20.10;1.00
2973;DHT22;1496;51.404;7.232;2023-09-18T05:48:16;20.00;1.00
2973;DHT22;1496;51.404;7.232;2023-09-18T05:50:42;20.00;1.00
2973;DHT22;1496;51.404;7.232;2023-09-18T05:53:07;20.10;1.00
2973;DHT22;1496;51.404;7.232;2023-09-18T05:55:34;20.10;1.00
2973;DHT22;1496;51.404;7.232;2023-09-18T05:58:00;20.20;1.00
2973;DHT22;1496;51.404;7.232;2023-09-18T06:00:27;20.10;1.00
2973;DHT22;1496;51.404;7.232;2023-09-18T06:02:53;20.20;1.00
2973;DHT22;1496;51.404;7.232;2023-09-18T06:05:19;20.20;1.00
2973;DHT22;1496;51.404;7.232;2023-09-18T06:07:48;20.20;1.00
2973;DHT22;1496;51.404;7.232;2023-09-18T06:10:14;20.10;1.00
2973;DHT22;1496;51.404;7.232;2023-09-18T06:12:40;20.10;1.00
2973;DHT22;1496;51.404;7.232;2023-09-18T06:15:09;20.10;1.00
2973;DHT22;1496;51.404;7.232;2023-09-18T06:17:39;20.10;1.00
2973;DHT22;1496;51.404;7.232;2023-09-18T06:20:06;20.10;1.00
2973;DHT22;1496;51.404;7.232;2023-09-18T06:22:39;20.10;1.00
2973;DHT22;1496;51.404;7.232;2023-09-18T06:25:06;20.10;1.00
2973;DHT22;1496;51.404;7.232;2023-09-18T06:27:35;20.10;1.00
2973;DHT22;1496;51.404;7.232;2023-09-18T06:30:02;20.10;1.00
2973;DHT22;1496;51.404;7.232;2023-09-18T06:32:29;20.00;1.00
2973;DHT22;1496;51.404;7.232;2023-09-18T06:34:54;20.10;1.00
2973;DHT22;1496;51.404;7.232;2023-09-18T06:37:20;20.10;1.00
2973;DHT22;1496;51.404;7.232;2023-09-18T06:39:46;20.10;1.00
2973;DHT22;1496;51.404;7.232;2023-09-18T06:42:12;20.10;1.00
2973;DHT22;1496;51.404;7.232;2023-09-18T06:44:38;20.10;1.00
2973;DHT22;1496;51.404;7.232;2023-09-18T06:47:03;20.20;1.00
2973;DHT22;1496;51.404;7.232;2023-09-18T06:49:29;20.20;1.00
2973;DHT22;1496;51.404;7.232;2023-09-18T06:51:56;20.20;1.00
2973;DHT22;1496;51.404;7.232;2023-09-18T06:54:21;20.30;1.00
2973;DHT22;1496;51.404;7.232;2023-09-18T06:56:47;20.30;1.00
2973;DHT22;1496;51.404;7.232;2023-09-18T06:59:13;20.30;1.00
2973;DHT22;1496;51.404;7.232;2023-09-18T07:01:39;20.30;1.00
2973;DHT22;1496;51.404;7.232;2023-09-18T07:04:06;20.20;1.00
2973;DHT22;1496;51.404;7.232;2023-09-18T07:06:32;20.30;1.00
2973;DHT22;1496;51.404;7.232;2023-09-18T07:09:01;20.30;1.00
2973;DHT22;1496;51.404;7.232;2023-09-18T07:11:28;20.30;1.00
2973;DHT22;1496;51.404;7.232;2023-09-18T07:13:55;20.30;1.00
2973;DHT22;1496;51.404;7.232;2023-09-18T07:16:21;20.30;1.00
2973;DHT22;1496;51.404;7.232;2023-09-18T07:18:46;20.30;1.00
2973;DHT22;1496;51.404;7.232;2023-09-18T07:21:12;20.30;1.00
2973;DHT22;1496;51.404;7.232;2023-09-18T07:23:40;20.30;1.00
2973;DHT22;1496;51.404;7.232;2023-09-18T07:26:06;20.40;1.00
2973;DHT22;1496;51.404;7.232;2023-09-18T07:28:32;20.50;1.00
2973;DHT22;1496;51.404;7.232;2023-09-18T07:31:06;20.50;1.00
2973;DHT22;1496;51.404;7.232;2023-09-18T07:33:32;20.50;1.00
2973;DHT22;1496;51.404;7.232;2023-09-18T07:35:58;20.60;1.00
2973;DHT22;1496;51.404;7.232;2023-09-18T07:38:24;20.60;1.00
2973;DHT22;1496;51.404;7.232;2023-09-18T07:40:50;20.70;1.00
2973;DHT22;1496;51.404;7.232;2023-09-18T07:43:16;20.80;1.00
2973;DHT22;1496;51.404;7.232;2023-09-18T07:45:41;21.00;1.00
2973;DHT22;1496;51.404;7.232;2023-09-18T07:48:07;20.90;1.00
2973;DHT22;1496;51.404;7.232;2023-09-18T07:50:34;21.00;1.00
2973;DHT22;1496;51.404;7.232;2023-09-18T07:53:01;21.00;1.00
2973;DHT22;1496;51.404;7.232;2023-09-18T07:55:27;20.90;1.00
2973;DHT22;1496;51.404;7.232;2023-09-18T07:57:52;20.90;1.00
2973;DHT22;1496;51.404;7.232;2023-09-18T08:00:19;20.80;1.00
2973;DHT22;1496;51.404;7.232;2023-09-18T08:02:48;20.80;1.00
2973;DHT22;1496;51.404;7.232;2023-09-18T08:05:17;20.70;1.00
2973;DHT22;1496;51.404;7.232;2023-09-18T08:07:43;20.70;1.00
2973;DHT22;1496;51.404;7.232;2023-09-18T08:10:09;20.80;1.00
2973;DHT22;1496;51.404;7.232;2023-09-18T08:12:35;20.80;1.00
2973;DHT22;1496;51.404;7.232;2023-09-18T08:15:01;20.80;1.00
2973;DHT22;1496;51.404;7.232;2023-09-18T08:17:28;20.70;1.00
2973;DHT22;1496;51.404;7.232;2023-09-18T08:19:53;20.80;1.00
2973;DHT22;1496;51.404;7.232;2023-09-18T08:22:20;20.70;1.00
2973;DHT22;1496;51.404;7.232;2023-09-18T08:24:47;20.70;1.00
2973;DHT22;1496;51.404;7.232;2023-09-18T08:27:14;20.70;1.00
2973;DHT22;1496;51.404;7.232;2023-09-18T08:29:43;20.60;1.00
2973;DHT22;1496;51.404;7.232;2023-09-18T08:32:09;20.60;1.00
2973;DHT22;1496;51.404;7.232;2023-09-18T08:34:34;20.60;1.00
2973;DHT22;1496;51.404;7.232;2023-09-18T08:37:01;20.60;1.00
2973;DHT22;1496;51.404;7.232;2023-09-18T08:39:27;20.50;1.00
2973;DHT22;1496;51.404;7.232;2023-09-18T08:42:02;20.50;1.00
2973;DHT22;1496;51.404;7.232;2023-09-18T08:44:29;20.50;1.00
2973;DHT22;1496;51.404;7.232;2023-09-18T08:46:55;20.60;1.00
2973;DHT22;1496;51.404;7.232;2023-09-18T08:49:25;20.60;1.00
2973;DHT22;1496;51.404;7.232;2023-09-18T08:51:54;20.70;1.00
2973;DHT22;1496;51.404;7.232;2023-09-18T08:54:24;20.70;1.00
2973;DHT22;1496;51.404;7.232;2023-09-18T08:56:54;20.70;1.00
2973;DHT22;1496;51.404;7.232;2023-09-18T08:59:21;20.80;1.00
2973;DHT22;1496;51.404;7.232;2023-09-18T09:01:48;20.90;1.00
2973;DHT22;1496;51.404;7.232;2023-09-18T09:04:14;20.80;1.00
2973;DHT22;1496;51.404;7.232;2023-09-18T09:06:41;20.80;1.00
2973;DHT22;1496;51.404;7.232;2023-09-18T09:09:07;20.80;1.00
2973;DHT22;1496;51.404;7.232;2023-09-18T09:11:34;20.80;1.00
2973;DHT22;1496;51.404;7.232;2023-09-18T09:14:13;20.80;1.00
2973;DHT22;1496;51.404;7.232;2023-09-18T09:16:54;20.90;1.00
2973;DHT22;1496;51.404;7.232;2023-09-18T09:19:35;20.90;1.00
2973;DHT22;1496;51.404;7.232;2023-09-18T09:22:08;21.00;1.00
2973;DHT22;1496;51.404;7.232;2023-09-18T09:24:42;21.20;1.00
2973;DHT22;1496;51.404;7.232;2023-09-18T09:27:10;21.30;1.00
2973;DHT22;1496;51.404;7.232;2023-09-18T09:29:37;21.20;1.00
2973;DHT22;1496;51.404;7.232;2023-09-18T09:32:13;21.10;1.00
2973;DHT22;1496;51.404;7.232;2023-09-18T09:34:41;21.20;1.00
2973;DHT22;1496;51.404;7.232;2023-09-18T09:37:07;21.20;1.00
2973;DHT22;1496;51.404;7.232;2023-09-18T09:39:33;21.20;1.00
2973;DHT22;1496;51.404;7.232;2023-09-18T09:42:00;21.20;1.00
2973;DHT22;1496;51.404;7.232;2023-09-18T09:44:31;21.20;1.00
2973;DHT22;1496;51.404;7.232;2023-09-18T09:46:59;21.20;1.00
2973;DHT22;1496;51.404;7.232;2023-09-18T09:49:25;21.20;1.00
2973;DHT22;1496;51.404;7.232;2023-09-18T09:51:53;21.10;1.00
2973;DHT22;1496;51.404;7.232;2023-09-18T09:54:32;21.10;1.00
2973;DHT22;1496;51.404;7.232;2023-09-18T09:57:03;21.20;1.00
2973;DHT22;1496;51.404;7.232;2023-09-18T09:59:29;21.30;1.00
2973;DHT22;1496;51.404;7.232;2023-09-18T10:01:58;21.30;1.00
2973;DHT22;1496;51.404;7.232;2023-09-18T10:04:26;21.40;1.00
2973;DHT22;1496;51.404;7.232;2023-09-18T10:06:57;21.40;1.00
2973;DHT22;1496;51.404;7.232;2023-09-18T10:09:26;21.30;1.00
2973;DHT22;1496;51.404;7.232;2023-09-18T10:11:55;21.30;1.00
2973;DHT22;1496;51.404;7.232;2023-09-18T10:14:32;21.40;1.00
2973;DHT22;1496;51.404;7.232;2023-09-18T10:17:09;21.40;1.00
2973;DHT22;1496;51.404;7.232;2023-09-18T10:19:58;21.40;1.00
2973;DHT22;1496;51.404;7.232;2023-09-18T10:22:45;21.60;1.00
2973;DHT22;1496;51.404;7.232;2023-09-18T10:25:20;21.70;1.00
2973;DHT22;1496;51.404;7.232;2023-09-18T10:27:48;21.80;1.00
2973;DHT22;1496;51.404;7.232;2023-09-18T10:30:16;21.60;1.00
2973;DHT22;1496;51.404;7.232;2023-09-18T10:32:44;21.70;1.00
2973;DHT22;1496;51.404;7.232;2023-09-18T10:35:12;21.70;1.00
2973;DHT22;1496;51.404;7.232;2023-09-18T10:37:38;21.80;1.00
2973;DHT22;1496;51.404;7.232;2023-09-18T10:40:08;22.00;1.00
2973;DHT22;1496;51.404;7.232;2023-09-18T10:42:39;22.20;1.00
2973;DHT22;1496;51.404;7.232;2023-09-18T10:45:07;22.40;1.00
2973;DHT22;1496;51.404;7.232;2023-09-18T10:47:41;22.50;1.00
2973;DHT22;1496;51.404;7.232;2023-09-18T10:50:08;22.60;1.00
2973;DHT22;1496;51.404;7.232;2023-09-18T10:52:35;22.50;1.00
2973;DHT22;1496;51.404;7.232;2023-09-18T10:55:02;22.70;1.00
2973;DHT22;1496;51.404;7.232;2023-09-18T10:57:34;22.70;1.00
2973;DHT22;1496;51.404;7.232;2023-09-18T11:00:01;22.80;1.00
2973;DHT22;1496;51.404;7.232;2023-09-18T11:02:38;22.80;1.00
2973;DHT22;1496;51.404;7.232;2023-09-18T11:05:07;23.00;1.00
2973;DHT22;1496;51.404;7.232;2023-09-18T11:07:33;23.00;1.00
2973;DHT22;1496;51.404;7.232;2023-09-18T11:09:58;23.00;1.00
2973;DHT22;1496;51.404;7.232;2023-09-18T11:12:43;23.20;1.00
2973;DHT22;1496;51.404;7.232;2023-09-18T11:15:25;23.20;1.00
2973;DHT22;1496;51.404;7.232;2023-09-18T11:18:00;23.20;1.00
2973;DHT22;1496;51.404;7.232;2023-09-18T11:20:27;23.30;1.00
2973;DHT22;1496;51.404;7.232;2023-09-18T11:25:37;23.50;1.00
2973;DHT22;1496;51.404;7.232;2023-09-18T11:28:12;23.30;1.00
2973;DHT22;1496;51.404;7.232;2023-09-18T11:30:51;23.50;1.00
2973;DHT22;1496;51.404;7.232;2023-09-18T11:33:30;23.50;1.00
2973;DHT22;1496;51.404;7.232;2023-09-18T11:35:56;23.10;1.00
2973;DHT22;1496;51.404;7.232;2023-09-18T11:38:22;22.90;1.00
2973;DHT22;1496;51.404;7.232;2023-09-18T11:40:50;23.20;1.00
2973;DHT22;1496;51.404;7.232;2023-09-18T11:43:24;23.30;1.00
2973;DHT22;1496;51.404;7.232;2023-09-18T11:45:54;23.40;1.00
2973;DHT22;1496;51.404;7.232;2023-09-18T11:48:22;23.60;1.00
2973;DHT22;1496;51.404;7.232;2023-09-18T11:50:51;23.40;1.00
2973;DHT22;1496;51.404;7.232;2023-09-18T11:53:18;23.60;1.00
2973;DHT22;1496;51.404;7.232;2023-09-18T11:55:44;23.70;1.00
2973;DHT22;1496;51.404;7.232;2023-09-18T11:58:11;23.60;1.00
2973;DHT22;1496;51.404;7.232;2023-09-18T12:00:37;23.40;1.00
2973;DHT22;1496;51.404;7.232;2023-09-18T12:03:23;23.40;1.00
2973;DHT22;1496;51.404;7.232;2023-09-18T12:05:59;23.40;1.00
2973;DHT22;1496;51.404;7.232;2023-09-18T12:08:26;23.20;1.00
2973;DHT22;1496;51.404;7.232;2023-09-18T12:10:54;23.30;1.00
2973;DHT22;1496;51.404;7.232;2023-09-18T12:13:20;23.20;1.00
2973;DHT22;1496;51.404;7.232;2023-09-18T12:15:48;23.30;1.00
2973;DHT22;1496;51.404;7.232;2023-09-18T12:18:15;23.20;1.00
2973;DHT22;1496;51.404;7.232;2023-09-18T12:20:45;23.10;1.00
2973;DHT22;1496;51.404;7.232;2023-09-18T12:23:11;22.90;1.00
2973;DHT22;1496;51.404;7.232;2023-09-18T12:25:38;22.80;1.00
2973;DHT22;1496;51.404;7.232;2023-09-18T12:28:06;22.60;1.00
2973;DHT22;1496;51.404;7.232;2023-09-18T12:30:33;22.50;1.00
2973;DHT22;1496;51.404;7.232;2023-09-18T12:32:59;22.40;1.00
2973;DHT22;1496;51.404;7.232;2023-09-18T12:35:29;22.30;1.00
2973;DHT22;1496;51.404;7.232;2023-09-18T12:37:59;22.20;1.00
2973;DHT22;1496;51.404;7.232;2023-09-18T12:40:28;22.40;1.00
2973;DHT22;1496;51.404;7.232;2023-09-18T12:42:57;22.70;1.00
2973;DHT22;1496;51.404;7.232;2023-09-18T12:45:27;22.60;1.00
2973;DHT22;1496;51.404;7.232;2023-09-18T12:47:55;22.50;1.00
2973;DHT22;1496;51.404;7.232;2023-09-18T12:50:22;22.60;1.00
2973;DHT22;1496;51.404;7.232;2023-09-18T12:52:48;23.00;1.00
2973;DHT22;1496;51.404;7.232;2023-09-18T12:55:26;23.30;1.00
2973;DHT22;1496;51.404;7.232;2023-09-18T12:57:55;23.50;1.00
2973;DHT22;1496;51.404;7.232;2023-09-18T13:00:22;23.70;1.00
2973;DHT22;1496;51.404;7.232;2023-09-18T13:02:49;23.90;1.00
2973;DHT22;1496;51.404;7.232;2023-09-18T13:05:21;24.10;1.00
2973;DHT22;1496;51.404;7.232;2023-09-18T13:07:51;24.10;1.00
2973;DHT22;1496;51.404;7.232;2023-09-18T13:10:18;23.90;1.00
2973;DHT22;1496;51.404;7.232;2023-09-18T13:12:51;23.70;1.00
2973;DHT22;1496;51.404;7.232;2023-09-18T13:15:29;23.60;1.00
2973;DHT22;1496;51.404;7.232;2023-09-18T13:17:57;23.50;1.00
2973;DHT22;1496;51.404;7.232;2023-09-18T13:20:28;23.40;1.00
2973;DHT22;1496;51.404;7.232;2023-09-18T13:22:58;23.20;1.00
2973;DHT22;1496;51.404;7.232;2023-09-18T13:25:29;23.30;1.00
2973;DHT22;1496;51.404;7.232;2023-09-18T13:27:57;23.30;1.00
2973;DHT22;1496;51.404;7.232;2023-09-18T13:30:22;23.40;1.00
2973;DHT22;1496;51.404;7.232;2023-09-18T13:33:02;23.30;1.00
2973;DHT22;1496;51.404;7.232;2023-09-18T13:35:29;23.20;1.00
2973;DHT22;1496;51.404;7.232;2023-09-18T13:37:54;23.20;1.00
2973;DHT22;1496;51.404;7.232;2023-09-18T13:40:20;23.20;1.00
2973;DHT22;1496;51.404;7.232;2023-09-18T13:42:48;23.10;1.00
2973;DHT22;1496;51.404;7.232;2023-09-18T13:45:16;22.90;1.00
2973;DHT22;1496;51.404;7.232;2023-09-18T13:47:42;23.00;1.00
2973;DHT22;1496;51.404;7.232;2023-09-18T13:50:09;23.00;1.00
2973;DHT22;1496;51.404;7.232;2023-09-18T13:52:36;23.00;1.00
2973;DHT22;1496;51.404;7.232;2023-09-18T13:55:02;23.30;1.00
2973;DHT22;1496;51.404;7.232;2023-09-18T13:57:31;23.60;1.00
2973;DHT22;1496;51.404;7.232;2023-09-18T13:59:57;23.70;1.00
2973;DHT22;1496;51.404;7.232;2023-09-18T14:02:23;23.70;1.00
2973;DHT22;1496;51.404;7.232;2023-09-18T14:04:52;23.70;1.00
2973;DHT22;1496;51.404;7.232;2023-09-18T14:07:18;23.40;1.00
2973;DHT22;1496;51.404;7.232;2023-09-18T14:09:44;23.30;1.00
2973;DHT22;1496;51.404;7.232;2023-09-18T14:12:12;23.30;1.00
2973;DHT22;1496;51.404;7.232;2023-09-18T14:14:37;23.30;1.00
2973;DHT22;1496;51.404;7.232;2023-09-18T14:17:04;23.40;1.00
2973;DHT22;1496;51.404;7.232;2023-09-18T14:19:30;23.40;1.00
2973;DHT22;1496;51.404;7.232;2023-09-18T14:21:55;23.40;1.00
2973;DHT22;1496;51.404;7.232;2023-09-18T14:24:21;23.30;1.00
2973;DHT22;1496;51.404;7.232;2023-09-18T14:26:52;23.30;1.00
2973;DHT22;1496;51.404;7.232;2023-09-18T14:29:17;23.20;1.00
2973;DHT22;1496;51.404;7.232;2023-09-18T14:31:43;23.20;1.00
2973;DHT22;1496;51.404;7.232;2023-09-18T14:34:09;23.20;1.00
2973;DHT22;1496;51.404;7.232;2023-09-18T14:36:35;23.20;1.00
2973;DHT22;1496;51.404;7.232;2023-09-18T14:39:02;23.40;1.00
2973;DHT22;1496;51.404;7.232;2023-09-18T14:41:28;23.60;1.00
2973;DHT22;1496;51.404;7.232;2023-09-18T14:43:54;23.70;1.00
2973;DHT22;1496;51.404;7.232;2023-09-18T14:46:22;23.80;1.00
2973;DHT22;1496;51.404;7.232;2023-09-18T14:48:48;23.70;1.00
2973;DHT22;1496;51.404;7.232;2023-09-18T14:51:14;23.50;1.00
2973;DHT22;1496;51.404;7.232;2023-09-18T14:53:40;23.50;1.00
2973;DHT22;1496;51.404;7.232;2023-09-18T14:56:05;23.50;1.00
2973;DHT22;1496;51.404;7.232;2023-09-18T14:58:39;23.60;1.00
2973;DHT22;1496;51.404;7.232;2023-09-18T15:01:05;23.60;1.00
2973;DHT22;1496;51.404;7.232;2023-09-18T15:03:32;23.70;1.00
2973;DHT22;1496;51.404;7.232;2023-09-18T15:05:57;23.60;1.00
2973;DHT22;1496;51.404;7.232;2023-09-18T15:08:23;23.70;1.00
2973;DHT22;1496;51.404;7.232;2023-09-18T15:10:49;23.70;1.00
2973;DHT22;1496;51.404;7.232;2023-09-18T15:13:14;23.70;1.00
2973;DHT22;1496;51.404;7.232;2023-09-18T15:15:41;23.70;1.00
2973;DHT22;1496;51.404;7.232;2023-09-18T15:18:07;23.70;1.00
2973;DHT22;1496;51.404;7.232;2023-09-18T15:20:34;23.60;1.00
2973;DHT22;1496;51.404;7.232;2023-09-18T15:22:59;23.40;1.00
2973;DHT22;1496;51.404;7.232;2023-09-18T15:25:25;23.30;1.00
2973;DHT22;1496;51.404;7.232;2023-09-18T15:27:51;23.20;1.00
2973;DHT22;1496;51.404;7.232;2023-09-18T15:30:16;23.20;1.00
2973;DHT22;1496;51.404;7.232;2023-09-18T15:32:53;23.20;1.00
2973;DHT22;1496;51.404;7.232;2023-09-18T15:35:22;23.10;1.00
2973;DHT22;1496;51.404;7.232;2023-09-18T15:37:52;23.20;1.00
2973;DHT22;1496;51.404;7.232;2023-09-18T15:40:19;23.30;1.00
2973;DHT22;1496;51.404;7.232;2023-09-18T15:42:46;23.30;1.00
2973;DHT22;1496;51.404;7.232;2023-09-18T15:45:13;23.30;1.00
2973;DHT22;1496;51.404;7.232;2023-09-18T15:47:39;23.30;1.00
2973;DHT22;1496;51.404;7.232;2023-09-18T15:50:08;23.40;1.00
2973;DHT22;1496;51.404;7.232;2023-09-18T15:52:35;23.30;1.00
2973;DHT22;1496;51.404;7.232;2023-09-18T15:55:02;23.30;1.00
2973;DHT22;1496;51.404;7.232;2023-09-18T15:57:33;23.30;1.00
2973;DHT22;1496;51.404;7.232;2023-09-18T16:00:00;23.20;1.00
2973;DHT22;1496;51.404;7.232;2023-09-18T16:02:38;23.10;1.00
2973;DHT22;1496;51.404;7.232;2023-09-18T16:05:04;23.00;1.00
2973;DHT22;1496;51.404;7.232;2023-09-18T16:07:31;22.90;1.00
2973;DHT22;1496;51.404;7.232;2023-09-18T16:09:57;22.80;1.00
2973;DHT22;1496;51.404;7.232;2023-09-18T16:12:24;22.80;1.00
2973;DHT22;1496;51.404;7.232;2023-09-18T16:14:50;22.70;1.00
2973;DHT22;1496;51.404;7.232;2023-09-18T16:17:15;22.80;1.00
2973;DHT22;1496;51.404;7.232;2023-09-18T16:19:42;22.80;1.00
2973;DHT22;1496;51.404;7.232;2023-09-18T16:22:11;22.80;1.00